sensor_id;sensor_type;location;lat;lon;timestamp;temperature;humidity
21001;DHT22;10658;50.920;12.238;2024-03-02T00:01:12;5.30;99.90
21001;DHT22;10658;50.920;12.238;2024-03-02T00:05:20;5.40;99.90
21001;DHT22;10658;50.920;12.238;2024-03-02T00:09:21;5.40;99.90
21001;DHT22;10658;50.920;12.238;2024-03-02T00:13:22;5.40;99.90
21001;DHT22;10658;50.920;12.238;2024-03-02T00:17:25;5.30;99.90
21001;DHT22;10658;50.920;12.238;2024-03-02T00:21:30;5.30;99.90
21001;DHT22;10658;50.920;12.238;2024-03-02T00:25:45;5.30;99.90
21001;DHT22;10658;50.920;12.238;2024-03-02T00:29:47;5.30;99.90
21001;DHT22;10658;50.920;12.238;2024-03-02T00:33:48;5.30;99.90
21001;DHT22;10658;50.920;12.238;2024-03-02T00:37:49;5.30;99.90
21001;DHT22;10658;50.920;12.238;2024-03-02T00:41:50;5.20;99.90
21001;DHT22;10658;50.920;12.238;2024-03-02T00:45:51;5.20;99.90
21001;DHT22;10658;50.920;12.238;2024-03-02T00:49:52;5.20;99.90
21001;DHT22;10658;50.920;12.238;2024-03-02T00:53:53;5.10;99.90
21001;DHT22;10658;50.920;12.238;2024-03-02T00:57:58;4.90;99.90
21001;DHT22;10658;50.920;12.238;2024-03-02T01:01:58;4.80;99.90
21001;DHT22;10658;50.920;12.238;2024-03-02T01:06:00;4.80;99.90
21001;DHT22;10658;50.920;12.238;2024-03-02T01:10:00;4.70;99.90
21001;DHT22;10658;50.920;12.238;2024-03-02T01:14:01;4.60;99.90
21001;DHT22;10658;50.920;12.238;2024-03-02T01:18:02;4.60;99.90
21001;DHT22;10658;50.920;12.238;2024-03-02T01:22:03;4.50;99.90
21001;DHT22;10658;50.920;12.238;2024-03-02T01:26:04;4.40;99.90
21001;DHT22;10658;50.920;12.238;2024-03-02T01:30:06;4.40;99.90
21001;DHT22;10658;50.920;12.238;2024-03-02T01:34:06;4.30;99.90
21001;DHT22;10658;50.920;12.238;2024-03-02T01:38:07;4.20;99.90
21001;DHT22;10658;50.920;12.238;2024-03-02T01:42:08;4.20;99.90
21001;DHT22;10658;50.920;12.238;2024-03-02T01:46:11;4.10;99.90
21001;DHT22;10658;50.920;12.238;2024-03-02T01:50:12;4.00;99.90
21001;DHT22;10658;50.920;12.238;2024-03-02T01:54:13;4.00;99.90
21001;DHT22;10658;50.920;12.238;2024-03-02T01:58:14;4.00;99.90
21001;DHT22;10658;50.920;12.238;2024-03-02T02:02:15;4.00;99.90
21001;DHT22;10658;50.920;12.238;2024-03-02T02:06:16;4.00;99.90
21001;DHT22;10658;50.920;12.238;2024-03-02T02:10:17;4.10;99.90
21001;DHT22;10658;50.920;12.238;2024-03-02T02:14:18;4.10;99.90
21001;DHT22;10658;50.920;12.238;2024-03-02T02:18:19;4.20;99.90
21001;DHT22;10658;50.920;12.238;2024-03-02T02:22:20;4.40;99.90
21001;DHT22;10658;50.920;12.238;2024-03-02T02:26:20;4.50;99.90
21001;DHT22;10658;50.920;12.238;2024-03-02T02:30:25;4.80;99.90
21001;DHT22;10658;50.920;12.238;2024-03-02T02:34:26;4.90;99.90
21001;DHT22;10658;50.920;12.238;2024-03-02T02:38:27;4.90;99.90
21001;DHT22;10658;50.920;12.238;2024-03-02T02:42:27;4.90;99.90
21001;DHT22;10658;50.920;12.238;2024-03-02T02:46:28;4.90;99.90
21001;DHT22;10658;50.920;12.238;2024-03-02T02:50:29;4.90;99.90
21001;DHT22;10658;50.920;12.238;2024-03-02T02:54:30;5.00;99.90
21001;DHT22;10658;50.920;12.238;2024-03-02T02:58:31;5.10;99.90
21001;DHT22;10658;50.920;12.238;2024-03-02T03:02:32;5.20;99.90
21001;DHT22;10658;50.920;12.238;2024-03-02T03:06:32;5.20;99.90
21001;DHT22;10658;50.920;12.238;2024-03-02T03:10:33;5.10;99.90
21001;DHT22;10658;50.920;12.238;2024-03-02T03:14:34;5.10;99.90
21001;DHT22;10658;50.920;12.238;2024-03-02T03:18:34;5.20;99.90
21001;DHT22;10658;50.920;12.238;2024-03-02T03:22:36;5.20;99.90
21001;DHT22;10658;50.920;12.238;2024-03-02T03:26:37;5.30;99.90
21001;DHT22;10658;50.920;12.238;2024-03-02T03:30:38;5.30;99.90
21001;DHT22;10658;50.920;12.238;2024-03-02T03:34:39;5.30;99.90
21001;DHT22;10658;50.920;12.238;2024-03-02T03:38:41;5.40;99.90
21001;DHT22;10658;50.920;12.238;2024-03-02T03:42:41;5.50;99.90
21001;DHT22;10658;50.920;12.238;2024-03-02T03:46:42;5.60;99.90
21001;DHT22;10658;50.920;12.238;2024-03-02T03:50:43;5.60;99.90
21001;DHT22;10658;50.920;12.238;2024-03-02T03:54:44;5.60;99.90
21001;DHT22;10658;50.920;12.238;2024-03-02T03:58:45;5.70;99.90
21001;DHT22;10658;50.920;12.238;2024-03-02T04:02:46;5.60;99.90
21001;DHT22;10658;50.920;12.238;2024-03-02T04:06:47;5.40;99.90
21001;DHT22;10658;50.920;12.238;2024-03-02T04:10:48;5.30;99.90
21001;DHT22;10658;50.920;12.238;2024-03-02T04:14:49;5.10;99.90
21001;DHT22;10658;50.920;12.238;2024-03-02T04:18:49;5.00;99.90
21001;DHT22;10658;50.920;12.238;2024-03-02T04:22:50;5.00;99.90
21001;DHT22;10658;50.920;12.238;2024-03-02T04:26:51;4.90;99.90
21001;DHT22;10658;50.920;12.238;2024-03-02T04:30:52;4.80;99.90
21001;DHT22;10658;50.920;12.238;2024-03-02T04:34:53;4.80;99.90
21001;DHT22;10658;50.920;12.238;2024-03-02T04:38:55;4.90;99.90
21001;DHT22;10658;50.920;12.238;2024-03-02T04:42:55;5.00;99.90
21001;DHT22;10658;50.920;12.238;2024-03-02T04:46:56;5.00;99.90
21001;DHT22;10658;50.920;12.238;2024-03-02T04:50:58;5.10;99.90
21001;DHT22;10658;50.920;12.238;2024-03-02T04:54:59;5.10;99.90
21001;DHT22;10658;50.920;12.238;2024-03-02T04:59:19;5.10;99.90
21001;DHT22;10658;50.920;12.238;2024-03-02T05:03:20;5.20;99.90
21001;DHT22;10658;50.920;12.238;2024-03-02T05:07:21;5.10;99.90
21001;DHT22;10658;50.920;12.238;2024-03-02T05:11:22;4.90;99.90
21001;DHT22;10658;50.920;12.238;2024-03-02T05:15:52;4.80;99.90
21001;DHT22;10658;50.920;12.238;2024-03-02T05:19:52;4.70;99.90
21001;DHT22;10658;50.920;12.238;2024-03-02T05:23:53;4.60;99.90
21001;DHT22;10658;50.920;12.238;2024-03-02T05:27:54;4.50;99.90
21001;DHT22;10658;50.920;12.238;2024-03-02T05:31:55;4.30;99.90
21001;DHT22;10658;50.920;12.238;2024-03-02T05:35:56;4.30;99.90
21001;DHT22;10658;50.920;12.238;2024-03-02T05:39:56;4.20;99.90
21001;DHT22;10658;50.920;12.238;2024-03-02T05:43:57;4.20;99.90
21001;DHT22;10658;50.920;12.238;2024-03-02T05:47:58;4.20;99.90
21001;DHT22;10658;50.920;12.238;2024-03-02T05:51:59;4.30;99.90
21001;DHT22;10658;50.920;12.238;2024-03-02T05:56:00;4.40;99.90
21001;DHT22;10658;50.920;12.238;2024-03-02T06:00:00;4.40;99.90
21001;DHT22;10658;50.920;12.238;2024-03-02T06:04:01;4.50;99.90
21001;DHT22;10658;50.920;12.238;2024-03-02T06:08:02;4.60;99.90
21001;DHT22;10658;50.920;12.238;2024-03-02T06:12:03;4.80;99.90
21001;DHT22;10658;50.920;12.238;2024-03-02T06:16:05;5.00;99.90
21001;DHT22;10658;50.920;12.238;2024-03-02T06:20:06;5.00;99.90
21001;DHT22;10658;50.920;12.238;2024-03-02T06:24:08;5.10;99.90
21001;DHT22;10658;50.920;12.238;2024-03-02T06:28:09;5.10;99.90
21001;DHT22;10658;50.920;12.238;2024-03-02T06:32:10;5.20;99.90
21001;DHT22;10658;50.920;12.238;2024-03-02T06:36:11;5.30;99.90
21001;DHT22;10658;50.920;12.238;2024-03-02T06:40:12;5.30;99.90
21001;DHT22;10658;50.920;12.238;2024-03-02T06:44:13;5.30;99.90
21001;DHT22;10658;50.920;12.238;2024-03-02T06:48:14;5.50;99.90
21001;DHT22;10658;50.920;12.238;2024-03-02T06:52:19;5.50;99.90
21001;DHT22;10658;50.920;12.238;2024-03-02T06:56:21;5.60;99.90
21001;DHT22;10658;50.920;12.238;2024-03-02T07:00:21;5.70;99.90
21001;DHT22;10658;50.920;12.238;2024-03-02T07:04:22;5.70;99.90
21001;DHT22;10658;50.920;12.238;2024-03-02T07:08:23;5.80;99.90
21001;DHT22;10658;50.920;12.238;2024-03-02T07:12:24;5.90;99.90
21001;DHT22;10658;50.920;12.238;2024-03-02T07:16:24;6.00;99.90
21001;DHT22;10658;50.920;12.238;2024-03-02T07:20:25;6.00;99.90
21001;DHT22;10658;50.920;12.238;2024-03-02T07:24:26;6.10;99.90
21001;DHT22;10658;50.920;12.238;2024-03-02T07:28:27;6.20;99.90
21001;DHT22;10658;50.920;12.238;2024-03-02T07:32:28;6.30;99.90
21001;DHT22;10658;50.920;12.238;2024-03-02T07:36:28;6.50;99.90
21001;DHT22;10658;50.920;12.238;2024-03-02T07:40:29;6.60;99.90
21001;DHT22;10658;50.920;12.238;2024-03-02T07:44:30;6.80;99.90
21001;DHT22;10658;50.920;12.238;2024-03-02T07:48:31;7.00;99.90
21001;DHT22;10658;50.920;12.238;2024-03-02T07:52:32;7.10;99.90
21001;DHT22;10658;50.920;12.238;2024-03-02T07:56:34;7.40;99.90
21001;DHT22;10658;50.920;12.238;2024-03-02T08:00:35;7.50;99.90
21001;DHT22;10658;50.920;12.238;2024-03-02T08:04:36;7.70;99.90
21001;DHT22;10658;50.920;12.238;2024-03-02T08:08:37;8.00;99.90
21001;DHT22;10658;50.920;12.238;2024-03-02T08:12:39;8.20;99.90
21001;DHT22;10658;50.920;12.238;2024-03-02T08:16:40;8.40;99.90
21001;DHT22;10658;50.920;12.238;2024-03-02T08:20:41;8.50;99.90
21001;DHT22;10658;50.920;12.238;2024-03-02T08:24:42;8.60;99.90
21001;DHT22;10658;50.920;12.238;2024-03-02T08:28:43;8.70;99.90
21001;DHT22;10658;50.920;12.238;2024-03-02T08:32:44;8.70;99.90
21001;DHT22;10658;50.920;12.238;2024-03-02T08:36:46;8.70;99.90
21001;DHT22;10658;50.920;12.238;2024-03-02T08:40:47;8.70;99.90
21001;DHT22;10658;50.920;12.238;2024-03-02T08:44:48;8.80;99.90
21001;DHT22;10658;50.920;12.238;2024-03-02T08:48:49;8.90;99.90
21001;DHT22;10658;50.920;12.238;2024-03-02T08:52:49;9.10;99.90
21001;DHT22;10658;50.920;12.238;2024-03-02T08:56:50;9.20;99.90
21001;DHT22;10658;50.920;12.238;2024-03-02T09:00:51;9.20;99.90
21001;DHT22;10658;50.920;12.238;2024-03-02T09:04:53;9.40;99.90
21001;DHT22;10658;50.920;12.238;2024-03-02T09:08:54;9.50;99.90
21001;DHT22;10658;50.920;12.238;2024-03-02T09:12:54;9.60;99.90
21001;DHT22;10658;50.920;12.238;2024-03-02T09:16:55;9.70;99.90
21001;DHT22;10658;50.920;12.238;2024-03-02T09:20:56;9.80;99.90
21001;DHT22;10658;50.920;12.238;2024-03-02T09:24:57;9.80;99.90
21001;DHT22;10658;50.920;12.238;2024-03-02T09:28:58;10.00;99.90
21001;DHT22;10658;50.920;12.238;2024-03-02T09:32:59;10.00;99.90
21001;DHT22;10658;50.920;12.238;2024-03-02T09:37:00;10.10;99.90
21001;DHT22;10658;50.920;12.238;2024-03-02T09:41:04;10.40;99.90
21001;DHT22;10658;50.920;12.238;2024-03-02T09:45:06;10.70;99.90
21001;DHT22;10658;50.920;12.238;2024-03-02T09:49:07;10.90;99.90
21001;DHT22;10658;50.920;12.238;2024-03-02T09:53:09;11.10;99.90
21001;DHT22;10658;50.920;12.238;2024-03-02T09:57:10;11.30;99.90
21001;DHT22;10658;50.920;12.238;2024-03-02T10:01:11;11.30;99.90
21001;DHT22;10658;50.920;12.238;2024-03-02T10:05:12;11.40;99.90
21001;DHT22;10658;50.920;12.238;2024-03-02T10:09:27;11.30;99.90
21001;DHT22;10658;50.920;12.238;2024-03-02T10:13:28;11.40;99.90
21001;DHT22;10658;50.920;12.238;2024-03-02T10:17:31;11.60;99.90
21001;DHT22;10658;50.920;12.238;2024-03-02T10:21:32;11.80;99.90
21001;DHT22;10658;50.920;12.238;2024-03-02T10:25:36;12.10;99.90
21001;DHT22;10658;50.920;12.238;2024-03-02T10:29:38;12.00;99.90
21001;DHT22;10658;50.920;12.238;2024-03-02T10:33:40;11.80;99.90
21001;DHT22;10658;50.920;12.238;2024-03-02T10:37:41;11.80;99.90
21001;DHT22;10658;50.920;12.238;2024-03-02T10:41:44;12.00;99.90
21001;DHT22;10658;50.920;12.238;2024-03-02T10:45:49;12.20;99.90
21001;DHT22;10658;50.920;12.238;2024-03-02T10:49:51;12.50;99.90
21001;DHT22;10658;50.920;12.238;2024-03-02T10:53:53;12.80;99.90
21001;DHT22;10658;50.920;12.238;2024-03-02T10:57:54;13.40;99.90
21001;DHT22;10658;50.920;12.238;2024-03-02T11:01:58;13.80;99.90
21001;DHT22;10658;50.920;12.238;2024-03-02T11:06:00;13.90;99.90
21001;DHT22;10658;50.920;12.238;2024-03-02T11:10:04;14.10;99.90
21001;DHT22;10658;50.920;12.238;2024-03-02T11:14:14;14.20;99.90
21001;DHT22;10658;50.920;12.238;2024-03-02T11:18:17;14.40;99.90
21001;DHT22;10658;50.920;12.238;2024-03-02T11:22:19;14.20;99.90
21001;DHT22;10658;50.920;12.238;2024-03-02T11:26:22;14.20;99.90
21001;DHT22;10658;50.920;12.238;2024-03-02T11:34:34;13.80;99.90
21001;DHT22;10658;50.920;12.238;2024-03-02T11:38:36;13.60;99.90
21001;DHT22;10658;50.920;12.238;2024-03-02T11:42:38;13.90;99.90
21001;DHT22;10658;50.920;12.238;2024-03-02T11:46:41;13.90;99.90
21001;DHT22;10658;50.920;12.238;2024-03-02T11:50:47;14.30;99.90
21001;DHT22;10658;50.920;12.238;2024-03-02T11:54:48;14.40;99.90
21001;DHT22;10658;50.920;12.238;2024-03-02T11:58:49;14.70;99.90
21001;DHT22;10658;50.920;12.238;2024-03-02T12:03:09;14.90;99.90
21001;DHT22;10658;50.920;12.238;2024-03-02T12:07:12;14.80;99.90
21001;DHT22;10658;50.920;12.238;2024-03-02T12:11:20;14.80;99.90
21001;DHT22;10658;50.920;12.238;2024-03-02T12:15:32;15.30;99.90
21001;DHT22;10658;50.920;12.238;2024-03-02T12:19:33;15.60;99.90
21001;DHT22;10658;50.920;12.238;2024-03-02T12:23:35;15.70;99.90
21001;DHT22;10658;50.920;12.238;2024-03-02T12:27:39;15.70;99.90
21001;DHT22;10658;50.920;12.238;2024-03-02T12:31:40;15.70;99.90
21001;DHT22;10658;50.920;12.238;2024-03-02T12:35:41;15.50;99.90
21001;DHT22;10658;50.920;12.238;2024-03-02T12:39:45;15.40;99.90
21001;DHT22;10658;50.920;12.238;2024-03-02T12:43:47;14.90;99.90
21001;DHT22;10658;50.920;12.238;2024-03-02T12:47:47;14.60;99.90
21001;DHT22;10658;50.920;12.238;2024-03-02T12:51:48;14.40;99.90
21001;DHT22;10658;50.920;12.238;2024-03-02T12:55:52;14.30;99.90
21001;DHT22;10658;50.920;12.238;2024-03-02T13:00:07;14.10;99.90
21001;DHT22;10658;50.920;12.238;2024-03-02T13:04:09;14.00;99.90
21001;DHT22;10658;50.920;12.238;2024-03-02T13:08:10;14.00;99.90
21001;DHT22;10658;50.920;12.238;2024-03-02T13:12:11;14.00;99.90
21001;DHT22;10658;50.920;12.238;2024-03-02T13:16:12;14.00;99.90
21001;DHT22;10658;50.920;12.238;2024-03-02T13:20:14;14.00;99.90
21001;DHT22;10658;50.920;12.238;2024-03-02T13:24:15;13.90;99.90
21001;DHT22;10658;50.920;12.238;2024-03-02T13:28:16;13.90;99.90
21001;DHT22;10658;50.920;12.238;2024-03-02T13:32:18;13.90;99.90
21001;DHT22;10658;50.920;12.238;2024-03-02T13:36:24;13.80;99.90
21001;DHT22;10658;50.920;12.238;2024-03-02T13:40:25;13.90;99.90
21001;DHT22;10658;50.920;12.238;2024-03-02T13:44:25;13.90;99.90
21001;DHT22;10658;50.920;12.238;2024-03-02T13:48:26;14.10;99.90
21001;DHT22;10658;50.920;12.238;2024-03-02T13:52:27;14.20;99.90
21001;DHT22;10658;50.920;12.238;2024-03-02T13:56:29;14.40;99.90
21001;DHT22;10658;50.920;12.238;2024-03-02T14:00:30;14.60;99.90
21001;DHT22;10658;50.920;12.238;2024-03-02T14:04:34;14.60;99.90
21001;DHT22;10658;50.920;12.238;2024-03-02T14:08:35;14.70;99.90
21001;DHT22;10658;50.920;12.238;2024-03-02T14:12:37;14.70;99.90
21001;DHT22;10658;50.920;12.238;2024-03-02T14:16:38;14.70;99.90
21001;DHT22;10658;50.920;12.238;2024-03-02T14:20:39;14.70;99.90
21001;DHT22;10658;50.920;12.238;2024-03-02T14:24:42;14.70;99.90
21001;DHT22;10658;50.920;12.238;2024-03-02T14:28:43;14.50;99.90
21001;DHT22;10658;50.920;12.238;2024-03-02T14:32:44;14.20;99.90
21001;DHT22;10658;50.920;12.238;2024-03-02T14:36:45;14.00;99.90
21001;DHT22;10658;50.920;12.238;2024-03-02T14:40:46;13.70;99.90
21001;DHT22;10658;50.920;12.238;2024-03-02T14:44:46;13.50;99.90
21001;DHT22;10658;50.920;12.238;2024-03-02T14:48:47;13.50;99.90
21001;DHT22;10658;50.920;12.238;2024-03-02T14:52:48;13.50;99.90
21001;DHT22;10658;50.920;12.238;2024-03-02T14:56:49;13.40;99.90
21001;DHT22;10658;50.920;12.238;2024-03-02T15:00:51;13.30;99.90
21001;DHT22;10658;50.920;12.238;2024-03-02T15:04:52;13.30;99.90
21001;DHT22;10658;50.920;12.238;2024-03-02T15:08:53;13.20;99.90
21001;DHT22;10658;50.920;12.238;2024-03-02T15:12:58;13.20;99.90
21001;DHT22;10658;50.920;12.238;2024-03-02T15:16:59;13.10;99.90
21001;DHT22;10658;50.920;12.238;2024-03-02T15:21:00;13.10;99.90
21001;DHT22;10658;50.920;12.238;2024-03-02T15:25:00;13.10;99.90
21001;DHT22;10658;50.920;12.238;2024-03-02T15:29:01;13.10;99.90
21001;DHT22;10658;50.920;12.238;2024-03-02T15:33:02;13.10;99.90
21001;DHT22;10658;50.920;12.238;2024-03-02T15:37:04;13.00;99.90
21001;DHT22;10658;50.920;12.238;2024-03-02T15:41:04;13.10;99.90
21001;DHT22;10658;50.920;12.238;2024-03-02T15:45:05;13.00;99.90
21001;DHT22;10658;50.920;12.238;2024-03-02T15:49:07;13.00;99.90
21001;DHT22;10658;50.920;12.238;2024-03-02T15:53:09;12.90;99.90
21001;DHT22;10658;50.920;12.238;2024-03-02T15:57:10;12.90;99.90
21001;DHT22;10658;50.920;12.238;2024-03-02T16:01:12;12.80;99.90
21001;DHT22;10658;50.920;12.238;2024-03-02T16:05:13;12.70;99.90
21001;DHT22;10658;50.920;12.238;2024-03-02T16:09:13;12.60;99.90
21001;DHT22;10658;50.920;12.238;2024-03-02T16:13:14;12.40;99.90
21001;DHT22;10658;50.920;12.238;2024-03-02T16:17:15;12.30;99.90
21001;DHT22;10658;50.920;12.238;2024-03-02T16:21:16;12.20;99.90
21001;DHT22;10658;50.920;12.238;2024-03-02T16:25:18;12.00;99.90
21001;DHT22;10658;50.920;12.238;2024-03-02T16:29:18;11.80;99.90
21001;DHT22;10658;50.920;12.238;2024-03-02T16:33:19;11.60;99.90
21001;DHT22;10658;50.920;12.238;2024-03-02T16:37:20;11.50;99.90
21001;DHT22;10658;50.920;12.238;2024-03-02T16:41:21;11.30;99.90
21001;DHT22;10658;50.920;12.238;2024-03-02T16:45:22;11.10;99.90
21001;DHT22;10658;50.920;12.238;2024-03-02T16:49:23;10.90;99.90
21001;DHT22;10658;50.920;12.238;2024-03-02T16:53:24;10.70;99.90
21001;DHT22;10658;50.920;12.238;2024-03-02T16:57:24;10.60;99.90
21001;DHT22;10658;50.920;12.238;2024-03-02T17:01:25;10.40;99.90
21001;DHT22;10658;50.920;12.238;2024-03-02T17:05:27;10.40;99.90
21001;DHT22;10658;50.920;12.238;2024-03-02T17:09:28;10.30;99.90
21001;DHT22;10658;50.920;12.238;2024-03-02T17:13:29;10.20;99.90
21001;DHT22;10658;50.920;12.238;2024-03-02T17:17:30;10.10;99.90
21001;DHT22;10658;50.920;12.238;2024-03-02T17:21:31;10.00;99.90
21001;DHT22;10658;50.920;12.238;2024-03-02T17:25:33;9.80;99.90
21001;DHT22;10658;50.920;12.238;2024-03-02T17:29:34;9.70;99.90
21001;DHT22;10658;50.920;12.238;2024-03-02T17:33:35;9.50;99.90
21001;DHT22;10658;50.920;12.238;2024-03-02T17:37:36;9.40;99.90
21001;DHT22;10658;50.920;12.238;2024-03-02T17:41:39;9.30;99.90
21001;DHT22;10658;50.920;12.238;2024-03-02T17:45:40;9.30;99.90
21001;DHT22;10658;50.920;12.238;2024-03-02T17:49:40;9.20;99.90
21001;DHT22;10658;50.920;12.238;2024-03-02T17:53:41;8.90;99.90
21001;DHT22;10658;50.920;12.238;2024-03-02T17:57:42;8.70;99.90
21001;DHT22;10658;50.920;12.238;2024-03-02T18:01:43;8.50;99.90
21001;DHT22;10658;50.920;12.238;2024-03-02T18:05:44;8.50;99.90
21001;DHT22;10658;50.920;12.238;2024-03-02T18:09:44;8.50;99.90
21001;DHT22;10658;50.920;12.238;2024-03-02T18:13:45;8.50;99.90
21001;DHT22;10658;50.920;12.238;2024-03-02T18:17:46;8.60;99.90
21001;DHT22;10658;50.920;12.238;2024-03-02T18:21:47;8.70;99.90
21001;DHT22;10658;50.920;12.238;2024-03-02T18:25:48;8.60;99.90
21001;DHT22;10658;50.920;12.238;2024-03-02T18:29:49;8.60;99.90
21001;DHT22;10658;50.920;12.238;2024-03-02T18:33:49;8.60;99.90
21001;DHT22;10658;50.920;12.238;2024-03-02T18:37:50;8.70;99.90
21001;DHT22;10658;50.920;12.238;2024-03-02T18:41:51;8.60;99.90
21001;DHT22;10658;50.920;12.238;2024-03-02T18:45:52;8.70;99.90
21001;DHT22;10658;50.920;12.238;2024-03-02T18:49:56;8.50;99.90
21001;DHT22;10658;50.920;12.238;2024-03-02T18:53:57;8.50;99.90
21001;DHT22;10658;50.920;12.238;2024-03-02T18:57:58;8.50;99.90
21001;DHT22;10658;50.920;12.238;2024-03-02T19:01:59;8.40;99.90
21001;DHT22;10658;50.920;12.238;2024-03-02T19:06:01;8.40;99.90
21001;DHT22;10658;50.920;12.238;2024-03-02T19:10:01;8.30;99.90
21001;DHT22;10658;50.920;12.238;2024-03-02T19:14:05;8.20;99.90
21001;DHT22;10658;50.920;12.238;2024-03-02T19:18:05;8.10;99.90
21001;DHT22;10658;50.920;12.238;2024-03-02T19:22:06;8.00;99.90
21001;DHT22;10658;50.920;12.238;2024-03-02T19:26:07;7.90;99.90
21001;DHT22;10658;50.920;12.238;2024-03-02T19:30:10;7.80;99.90
21001;DHT22;10658;50.920;12.238;2024-03-02T19:34:11;7.70;99.90
21001;DHT22;10658;50.920;12.238;2024-03-02T19:38:12;7.60;99.90
21001;DHT22;10658;50.920;12.238;2024-03-02T19:42:13;7.50;99.90
21001;DHT22;10658;50.920;12.238;2024-03-02T19:46:14;7.50;99.90
21001;DHT22;10658;50.920;12.238;2024-03-02T19:50:15;7.40;99.90
21001;DHT22;10658;50.920;12.238;2024-03-02T19:54:18;7.10;99.90
21001;DHT22;10658;50.920;12.238;2024-03-02T19:58:19;7.10;99.90
21001;DHT22;10658;50.920;12.238;2024-03-02T20:02:19;7.10;99.90
21001;DHT22;10658;50.920;12.238;2024-03-02T20:06:22;7.10;99.90
21001;DHT22;10658;50.920;12.238;2024-03-02T20:10:23;7.10;99.90
21001;DHT22;10658;50.920;12.238;2024-03-02T20:14:24;7.10;99.90
21001;DHT22;10658;50.920;12.238;2024-03-02T20:18:25;7.00;99.90
21001;DHT22;10658;50.920;12.238;2024-03-02T20:22:30;6.90;99.90
21001;DHT22;10658;50.920;12.238;2024-03-02T20:26:32;6.80;99.90
21001;DHT22;10658;50.920;12.238;2024-03-02T20:30:32;6.40;99.90
21001;DHT22;10658;50.920;12.238;2024-03-02T20:34:33;6.10;99.90
21001;DHT22;10658;50.920;12.238;2024-03-02T20:38:34;6.10;99.90
21001;DHT22;10658;50.920;12.238;2024-03-02T20:42:35;6.20;99.90
21001;DHT22;10658;50.920;12.238;2024-03-02T20:46:36;6.10;99.90
21001;DHT22;10658;50.920;12.238;2024-03-02T20:50:36;6.10;99.90
21001;DHT22;10658;50.920;12.238;2024-03-02T20:54:37;5.90;99.90
21001;DHT22;10658;50.920;12.238;2024-03-02T20:58:39;6.00;99.90
21001;DHT22;10658;50.920;12.238;2024-03-02T21:02:44;5.90;99.90
21001;DHT22;10658;50.920;12.238;2024-03-02T21:06:46;5.90;99.90
21001;DHT22;10658;50.920;12.238;2024-03-02T21:10:46;5.90;99.90
21001;DHT22;10658;50.920;12.238;2024-03-02T21:14:48;5.80;99.90
21001;DHT22;10658;50.920;12.238;2024-03-02T21:18:49;5.80;99.90
21001;DHT22;10658;50.920;12.238;2024-03-02T21:22:51;5.70;99.90
21001;DHT22;10658;50.920;12.238;2024-03-02T21:26:52;5.70;99.90
21001;DHT22;10658;50.920;12.238;2024-03-02T21:30:53;5.70;99.90
21001;DHT22;10658;50.920;12.238;2024-03-02T21:34:54;5.70;99.90
21001;DHT22;10658;50.920;12.238;2024-03-02T21:38:54;5.50;99.90
21001;DHT22;10658;50.920;12.238;2024-03-02T21:42:56;5.40;99.90
21001;DHT22;10658;50.920;12.238;2024-03-02T21:46:57;5.30;99.90
21001;DHT22;10658;50.920;12.238;2024-03-02T21:50:58;5.20;99.90
21001;DHT22;10658;50.920;12.238;2024-03-02T21:54:59;5.10;99.90
21001;DHT22;10658;50.920;12.238;2024-03-02T21:58:59;5.00;99.90
21001;DHT22;10658;50.920;12.238;2024-03-02T22:03:00;4.90;99.90
21001;DHT22;10658;50.920;12.238;2024-03-02T22:07:01;5.00;99.90
21001;DHT22;10658;50.920;12.238;2024-03-02T22:11:02;4.80;99.90
21001;DHT22;10658;50.920;12.238;2024-03-02T22:15:04;4.80;99.90
21001;DHT22;10658;50.920;12.238;2024-03-02T22:19:05;4.80;99.90
21001;DHT22;10658;50.920;12.238;2024-03-02T22:23:06;4.80;99.90
21001;DHT22;10658;50.920;12.238;2024-03-02T22:27:06;4.80;99.90
21001;DHT22;10658;50.920;12.238;2024-03-02T22:31:07;4.80;99.90
21001;DHT22;10658;50.920;12.238;2024-03-02T22:35:08;4.80;99.90
21001;DHT22;10658;50.920;12.238;2024-03-02T22:39:09;4.80;99.90
21001;DHT22;10658;50.920;12.238;2024-03-02T22:43:10;4.80;99.90
21001;DHT22;10658;50.920;12.238;2024-03-02T22:47:11;4.80;99.90
21001;DHT22;10658;50.920;12.238;2024-03-02T22:51:25;4.70;99.90
21001;DHT22;10658;50.920;12.238;2024-03-02T22:55:26;4.60;99.90
21001;DHT22;10658;50.920;12.238;2024-03-02T22:59:28;4.60;99.90
21001;DHT22;10658;50.920;12.238;2024-03-02T23:03:29;4.40;99.90
21001;DHT22;10658;50.920;12.238;2024-03-02T23:07:30;4.40;99.90
21001;DHT22;10658;50.920;12.238;2024-03-02T23:11:31;4.20;99.90
21001;DHT22;10658;50.920;12.238;2024-03-02T23:15:31;4.20;99.90
21001;DHT22;10658;50.920;12.238;2024-03-02T23:19:33;4.10;99.90
21001;DHT22;10658;50.920;12.238;2024-03-02T23:23:33;4.00;99.90
21001;DHT22;10658;50.920;12.238;2024-03-02T23:27:34;3.90;99.90
21001;DHT22;10658;50.920;12.238;2024-03-02T23:31:35;3.90;99.90
21001;DHT22;10658;50.920;12.238;2024-03-02T23:35:36;3.90;99.90
21001;DHT22;10658;50.920;12.238;2024-03-02T23:39:37;3.80;99.90
21001;DHT22;10658;50.920;12.238;2024-03-02T23:44:06;3.80;99.90
21001;DHT22;10658;50.920;12.238;2024-03-02T23:48:08;3.70;99.90
21001;DHT22;10658;50.920;12.238;2024-03-02T23:52:10;3.70;99.90
21001;DHT22;10658;50.920;12.238;2024-03-02T23:56:12;3.60;99.90
